createdAt,value
2022-11-25T06:27:04.070Z,54.75
2022-11-25T06:29:30.605Z,54.18
2022-11-25T06:31:57.069Z,54.20
2022-11-25T06:34:26.348Z,54.11
2022-11-25T06:36:53.594Z,54.07
2022-11-25T06:39:20.289Z,54.03
2022-11-25T06:41:47.370Z,54.30
2022-11-25T06:46:43.163Z,53.98
2022-11-25T06:49:09.980Z,54.14
2022-11-25T06:51:36.423Z,54.13
2022-11-25T06:54:02.935Z,54.35
2022-11-25T06:56:29.695Z,54.22
2022-11-25T06:58:56.156Z,54.39
2022-11-25T07:01:24.275Z,54.37
2022-11-25T07:03:52.659Z,54.81
2022-11-25T07:06:19.735Z,54.76
2022-11-25T07:08:46.842Z,54.82
2022-11-25T07:11:26.627Z,54.81
2022-11-25T07:13:57.550Z,54.68
2022-11-25T07:16:24.616Z,54.80
2022-11-25T07:18:51.035Z,54.99
2022-11-25T07:21:18.587Z,54.82
2022-11-25T07:23:45.890Z,54.74
2022-11-25T07:26:15.451Z,54.95
2022-11-25T07:28:41.860Z,54.96
2022-11-25T07:31:23.340Z,54.81
2022-11-25T07:33:55.964Z,54.82
2022-11-25T07:36:22.684Z,55.13
2022-11-25T07:38:49.032Z,54.92
2022-11-25T07:41:16.721Z,55.11
2022-11-25T07:43:46.587Z,54.95
2022-11-25T07:46:26.239Z,55.04
2022-11-25T07:48:54.120Z,55.05
2022-11-25T07:51:23.505Z,55.29
2022-11-25T07:53:50.357Z,55.00
2022-11-25T07:56:17.961Z,55.43
2022-11-25T07:58:46.135Z,55.50
2022-11-25T08:01:13.314Z,55.51
2022-11-25T08:03:40.603Z,55.45
2022-11-25T08:06:08.517Z,55.18
2022-11-25T08:08:35.681Z,55.20
2022-11-25T08:11:05.827Z,55.23
2022-11-25T08:13:32.695Z,55.20
2022-11-25T08:15:59.650Z,55.29
2022-11-25T08:18:25.986Z,55.18
2022-11-25T08:20:52.362Z,55.19
2022-11-25T08:23:18.733Z,55.51
2022-11-25T08:25:50.130Z,55.13
2022-11-25T08:28:16.909Z,55.15
2022-11-25T08:30:43.339Z,55.17
2022-11-25T08:33:09.933Z,55.24
2022-11-25T08:35:38.019Z,55.35
2022-11-25T08:38:05.786Z,55.40
2022-11-25T08:40:33.407Z,55.30
2022-11-25T08:42:59.809Z,55.08
2022-11-25T08:45:26.249Z,55.34
2022-11-25T08:47:52.694Z,55.33
2022-11-25T08:50:19.081Z,55.63
2022-11-25T08:52:45.483Z,55.41
2022-11-25T08:55:11.881Z,55.09
2022-11-25T08:57:38.238Z,55.43
2022-11-25T09:00:05.555Z,55.08
2022-11-25T09:02:31.996Z,55.20
2022-11-25T09:04:58.374Z,55.31
2022-11-25T09:07:30.355Z,55.45
2022-11-25T09:09:57.142Z,55.44
2022-11-25T09:12:23.574Z,55.30
2022-11-25T09:14:49.975Z,55.28
2022-11-25T09:17:16.553Z,55.62
2022-11-25T09:19:42.891Z,55.59
2022-11-25T09:22:09.378Z,55.45
2022-11-25T09:24:36.288Z,55.71
2022-11-25T09:27:02.828Z,55.54
2022-11-25T09:29:30.914Z,55.36
2022-11-25T09:31:57.358Z,55.09
2022-11-25T09:34:24.450Z,55.27
2022-11-25T09:36:51.583Z,55.40
2022-11-25T09:39:17.987Z,55.32
2022-11-25T09:42:06.012Z,55.30
2022-11-25T09:45:03.907Z,55.11
2022-11-25T09:47:30.262Z,55.22
2022-11-25T09:49:59.616Z,55.40
2022-11-25T09:52:44.920Z,55.19
2022-11-25T09:55:15.547Z,55.06
2022-11-25T09:57:59.090Z,55.40
2022-11-25T10:00:27.596Z,55.40
2022-11-25T10:03:06.977Z,55.50
2022-11-25T10:05:37.944Z,55.34
2022-11-25T10:08:24.605Z,55.47
2022-11-25T10:10:58.656Z,55.38
2022-11-25T10:13:29.371Z,55.16
2022-11-25T10:15:59.096Z,55.66
2022-11-25T10:18:30.147Z,55.45
2022-11-25T10:20:56.507Z,55.43
2022-11-25T10:23:28.143Z,55.15
2022-11-25T10:26:01.337Z,55.20
2022-11-25T10:28:31.839Z,55.50
2022-11-25T10:31:04.663Z,55.63
2022-11-25T10:33:32.752Z,55.41
2022-11-25T10:36:00.847Z,55.24
2022-11-25T10:38:45.616Z,55.03
2022-11-25T10:41:15.632Z,55.20
2022-11-25T10:43:42.407Z,55.46
2022-11-25T10:46:16.437Z,55.04
2022-11-25T10:48:50.300Z,55.18
2022-11-25T10:51:27.887Z,55.16
2022-11-25T10:54:12.783Z,54.91
2022-11-25T10:56:43.145Z,55.25
2022-11-25T10:59:13.596Z,54.95
2022-11-25T11:01:40.127Z,55.15
2022-11-25T11:04:13.018Z,55.12
2022-11-25T11:06:40.588Z,54.92
2022-11-25T11:09:26.881Z,55.14
2022-11-25T11:11:53.250Z,55.21
2022-11-25T11:14:21.001Z,54.97
2022-11-25T11:16:55.013Z,55.13
2022-11-25T11:19:26.016Z,55.08
2022-11-25T11:21:52.822Z,54.70
2022-11-25T11:24:29.855Z,55.01
2022-11-25T11:27:14.879Z,55.27
2022-11-25T11:29:41.346Z,54.79
2022-11-25T11:32:18.326Z,55.16
2022-11-25T11:34:48.110Z,55.12
2022-11-25T11:37:17.618Z,55.12
2022-11-25T11:39:54.970Z,54.95
2022-11-25T11:42:29.474Z,55.04
2022-11-25T11:45:12.422Z,55.38
2022-11-25T11:47:57.534Z,54.87
2022-11-25T11:50:26.465Z,55.00
2022-11-25T11:52:52.799Z,54.83
2022-11-25T11:55:28.458Z,55.36
2022-11-25T11:58:04.037Z,55.00
2022-11-25T12:00:33.397Z,55.12
2022-11-25T12:03:02.469Z,54.88
2022-11-25T12:05:31.572Z,54.66
2022-11-25T12:08:02.060Z,54.95
2022-11-25T12:10:47.115Z,54.99
2022-11-25T12:13:19.337Z,55.20
2022-11-25T12:15:45.711Z,54.93
2022-11-25T12:18:15.873Z,55.31
2022-11-25T12:20:51.000Z,55.07
2022-11-25T12:23:32.749Z,55.01
2022-11-25T12:26:02.719Z,55.08
2022-11-25T12:28:33.842Z,55.30
2022-11-25T12:31:13.029Z,55.15
2022-11-25T12:33:45.223Z,55.27
2022-11-25T12:36:20.900Z,55.37
2022-11-25T12:38:54.732Z,55.20
2022-11-25T12:41:27.000Z,55.66
2022-11-25T12:44:00.572Z,55.50
2022-11-25T12:46:33.919Z,55.45
2022-11-25T12:49:01.297Z,55.56
2022-11-25T12:51:40.443Z,55.43
2022-11-25T12:54:13.106Z,55.51
2022-11-25T12:56:45.595Z,55.35
2022-11-25T12:59:11.992Z,55.60
2022-11-25T13:01:38.815Z,55.30
2022-11-25T13:04:11.681Z,55.37
2022-11-25T13:06:50.036Z,55.29
2022-11-25T13:09:19.536Z,55.33
2022-11-25T13:12:12.933Z,55.19
2022-11-25T13:14:55.132Z,55.40
2022-11-25T13:17:23.068Z,55.69
2022-11-25T13:19:49.692Z,55.21
2022-11-25T13:22:23.586Z,55.47
2022-11-25T13:24:50.203Z,55.37
2022-11-25T13:27:33.632Z,55.38
2022-11-25T13:30:01.111Z,55.48
2022-11-25T13:32:33.767Z,55.66
2022-11-25T13:35:19.152Z,55.47
2022-11-25T13:37:45.677Z,55.29
2022-11-25T13:40:31.165Z,55.42
2022-11-25T13:43:00.502Z,55.22
2022-11-25T13:45:26.982Z,55.41
2022-11-25T13:47:54.791Z,55.41
2022-11-25T13:50:22.774Z,55.32
2022-11-25T13:53:08.197Z,55.19
2022-11-25T13:55:36.208Z,55.55
2022-11-25T13:58:05.691Z,55.42
2022-11-25T14:00:32.111Z,55.55
2022-11-25T14:03:18.551Z,55.51
2022-11-25T14:05:51.076Z,55.54
2022-11-25T14:08:20.639Z,55.55
2022-11-25T14:10:56.135Z,55.91
2022-11-25T14:13:41.449Z,55.65
2022-11-25T14:16:26.969Z,55.63
2022-11-25T14:19:43.794Z,55.80
2022-11-25T14:22:07.329Z,55.78
2022-11-25T14:24:39.912Z,55.72
2022-11-25T14:27:13.985Z,55.74
2022-11-25T14:29:50.878Z,55.71
2022-11-25T14:32:23.320Z,55.36
2022-11-25T14:34:54.148Z,55.58
2022-11-25T14:37:26.169Z,55.48
2022-11-25T14:39:52.589Z,55.15
2022-11-25T14:42:21.206Z,55.19
2022-11-25T14:44:49.242Z,55.32
2022-11-25T14:47:15.765Z,55.36
2022-11-25T14:49:59.502Z,55.19
2022-11-25T14:52:36.049Z,55.28
2022-11-25T14:55:04.721Z,55.00
2022-11-25T14:57:35.992Z,55.05
2022-11-25T15:00:04.911Z,55.22
2022-11-25T15:02:33.419Z,54.83
2022-11-25T15:05:15.032Z,55.04
2022-11-25T15:07:43.323Z,54.93
2022-11-25T15:10:32.763Z,54.65
2022-11-25T15:13:00.277Z,54.96
2022-11-25T15:15:27.318Z,54.97
2022-11-25T15:17:55.337Z,54.86
2022-11-25T15:20:24.850Z,54.95
2022-11-25T15:22:52.461Z,54.91
2022-11-25T15:25:22.062Z,54.68
2022-11-25T15:27:49.770Z,54.87
2022-11-25T15:30:19.466Z,54.81
2022-11-25T15:32:46.671Z,54.58
2022-11-25T15:35:18.459Z,54.83
2022-11-25T15:37:44.989Z,54.95
2022-11-25T15:40:31.411Z,54.61
2022-11-25T15:42:59.527Z,55.00
2022-11-25T15:45:27.200Z,54.81
2022-11-25T15:47:53.791Z,54.73
2022-11-25T15:50:24.832Z,54.88
2022-11-25T15:52:55.763Z,54.78
2022-11-25T15:55:36.216Z,54.99
2022-11-25T15:58:16.939Z,54.88
2022-11-25T16:00:59.249Z,55.05
2022-11-25T16:03:25.928Z,55.05
2022-11-25T16:05:56.257Z,54.83
2022-11-25T16:08:33.477Z,54.71
2022-11-25T16:11:09.542Z,54.66
2022-11-25T16:13:37.157Z,54.96
2022-11-25T16:16:03.615Z,55.06
2022-11-25T16:18:40.296Z,54.72
2022-11-25T16:21:12.504Z,54.96
2022-11-25T16:23:41.908Z,54.70
2022-11-25T16:26:11.089Z,54.79
2022-11-25T16:28:37.892Z,54.76
2022-11-25T16:31:04.317Z,54.67
2022-11-25T16:33:30.786Z,54.84
2022-11-25T16:35:57.194Z,55.00
2022-11-25T16:38:23.723Z,54.69
2022-11-25T16:40:52.526Z,54.84
2022-11-25T16:43:23.727Z,54.66
2022-11-25T16:45:51.654Z,54.99
2022-11-25T16:48:19.464Z,54.62
2022-11-25T16:50:46.475Z,54.79
2022-11-25T16:53:13.041Z,54.89
2022-11-25T16:55:41.029Z,54.93
2022-11-25T16:58:11.732Z,54.74
2022-11-25T17:00:38.203Z,54.93
2022-11-25T17:03:05.893Z,54.77
2022-11-25T17:05:33.707Z,54.89
2022-11-25T17:08:00.270Z,54.70
2022-11-25T17:10:27.053Z,54.65
2022-11-25T17:12:53.537Z,54.78
2022-11-25T17:15:21.455Z,55.17
2022-11-25T17:46:38.361Z,60.91
2022-11-25T17:49:13.196Z,59.83
2022-11-25T17:51:39.796Z,59.37
2022-11-25T17:54:06.226Z,58.73
2022-11-25T17:56:32.808Z,58.42
2022-11-25T17:59:03.843Z,58.28
2022-11-25T18:01:30.715Z,57.88
2022-11-25T18:03:57.845Z,57.77
2022-11-25T18:06:24.355Z,57.68
2022-11-25T18:08:51.093Z,57.42
2022-11-25T18:11:18.885Z,56.49
2022-11-25T18:13:47.787Z,57.19
2022-11-25T18:16:18.036Z,57.01
2022-11-25T18:18:44.655Z,57.34
2022-11-25T18:21:11.800Z,57.02
2022-11-25T18:23:38.372Z,57.54
2022-11-25T18:26:05.232Z,57.54
2022-11-25T18:28:31.992Z,56.35
2022-11-25T18:31:05.146Z,57.21
2022-11-25T18:33:32.226Z,57.76
2022-11-25T18:35:58.856Z,58.07
2022-11-25T18:38:25.547Z,58.27
2022-11-25T18:40:54.063Z,58.51
2022-11-25T18:43:24.772Z,58.48
2022-11-25T18:45:53.983Z,58.98
2022-11-25T18:48:25.884Z,59.04
2022-11-25T18:50:55.035Z,59.12
2022-11-25T18:53:21.945Z,59.38
2022-11-25T18:55:49.484Z,59.63
2022-11-25T18:58:24.914Z,59.25
2022-11-25T19:00:52.462Z,59.66
2022-11-25T19:03:22.259Z,59.61
2022-11-25T19:05:49.532Z,59.88
2022-11-25T19:08:16.349Z,60.12
2022-11-25T19:10:44.441Z,57.99
2022-11-25T19:13:27.723Z,59.58
2022-11-25T19:15:55.047Z,60.16
2022-11-25T19:18:26.751Z,60.05
2022-11-25T19:20:53.561Z,60.46
2022-11-25T19:23:22.870Z,58.46
2022-11-25T19:25:49.571Z,60.47
2022-11-25T19:28:16.661Z,58.24
2022-11-25T19:30:45.359Z,60.02
2022-11-25T19:33:19.591Z,60.50
2022-11-25T19:35:46.263Z,60.75
2022-11-25T19:38:21.491Z,60.29
2022-11-25T19:40:49.318Z,60.69
2022-11-25T19:43:15.832Z,60.65
2022-11-25T19:45:42.588Z,60.88
2022-11-25T19:48:14.500Z,60.82
2022-11-25T19:50:42.817Z,60.79
2022-11-25T19:53:16.069Z,60.75
2022-11-25T19:55:42.553Z,60.55
2022-11-25T19:58:08.990Z,60.88
2022-11-25T20:00:35.773Z,60.79
2022-11-25T20:03:02.226Z,59.06
2022-11-25T20:05:33.378Z,60.62
2022-11-25T20:08:00.448Z,60.64
2022-11-25T20:10:30.282Z,60.90
2022-11-25T20:12:57.189Z,61.34
2022-11-25T20:15:24.064Z,61.20
2022-11-25T20:17:53.809Z,60.91
2022-11-25T20:20:23.809Z,61.33
2022-11-25T20:23:00.845Z,60.67
2022-11-25T20:25:28.085Z,61.10
2022-11-25T20:27:54.772Z,60.94
2022-11-25T20:30:24.232Z,60.96
2022-11-25T20:32:51.141Z,61.09
2022-11-25T20:35:18.392Z,61.54
2022-11-25T20:37:53.992Z,61.84
2022-11-25T20:40:23.961Z,62.09
2022-11-25T20:42:51.317Z,62.16
2022-11-25T20:45:21.417Z,62.15
2022-11-25T20:47:52.892Z,62.00
2022-11-25T20:50:20.968Z,62.34
2022-11-25T20:52:49.896Z,62.28
2022-11-25T20:55:23.375Z,61.97
2022-11-25T20:57:51.992Z,62.06
2022-11-25T21:00:26.548Z,62.16
2022-11-25T21:02:55.396Z,62.07
2022-11-25T21:05:21.916Z,62.25
2022-11-25T21:07:50.292Z,61.94
2022-11-25T21:10:25.019Z,61.81
2022-11-25T21:12:52.049Z,62.00
2022-11-25T21:15:23.614Z,61.84
2022-11-25T21:17:50.762Z,61.57
2022-11-25T21:20:18.876Z,61.50
2022-11-25T21:22:49.776Z,61.30
2022-11-25T21:25:22.551Z,60.83
2022-11-25T21:27:50.999Z,60.67
2022-11-25T21:30:23.265Z,60.69
2022-11-25T21:32:54.471Z,60.69
2022-11-25T21:35:22.422Z,61.26
2022-11-25T21:37:48.867Z,61.19
2022-11-25T21:40:33.092Z,60.68
2022-11-25T21:43:00.655Z,61.56
2022-11-25T21:45:27.211Z,61.43
2022-11-25T21:47:53.704Z,61.65
2022-11-25T21:50:20.411Z,61.90
2022-11-25T21:52:46.933Z,61.62
2022-11-25T21:55:15.243Z,61.92
2022-11-25T21:57:42.339Z,61.68
2022-11-25T22:00:20.091Z,61.41
2022-11-25T22:02:46.725Z,61.59
2022-11-25T22:05:14.561Z,59.91
2022-11-25T22:07:41.182Z,61.16
2022-11-25T22:10:08.329Z,61.27
2022-11-25T22:12:39.686Z,61.23
2022-11-25T22:15:30.097Z,61.14
2022-11-25T22:17:58.211Z,61.46
2022-11-25T22:20:34.095Z,60.96
2022-11-25T22:23:01.656Z,60.99
2022-11-25T22:25:31.302Z,60.96
2022-11-25T22:27:57.896Z,61.47
2022-11-25T22:30:24.436Z,61.37
2022-11-25T22:33:00.606Z,61.22
2022-11-25T22:35:27.969Z,61.63
2022-11-25T22:37:55.487Z,61.76
2022-11-25T22:40:23.778Z,61.42
2022-11-25T22:42:52.006Z,61.50
2022-11-25T22:45:33.073Z,61.25
2022-11-25T22:48:03.519Z,61.22
2022-11-25T22:50:32.384Z,61.40
2022-11-25T22:53:00.834Z,61.24
2022-11-25T22:55:30.041Z,61.34
2022-11-25T22:57:58.954Z,61.02
2022-11-25T23:00:28.251Z,61.14
2022-11-25T23:02:56.890Z,61.23
2022-11-25T23:05:32.240Z,60.98
2022-11-25T23:08:01.350Z,61.10
2022-11-25T23:10:30.425Z,61.47
2022-11-25T23:12:56.895Z,61.32
2022-11-25T23:15:24.727Z,61.44
2022-11-25T23:17:54.657Z,61.58
2022-11-25T23:20:26.185Z,61.53
2022-11-25T23:22:52.697Z,61.63
2022-11-25T23:25:21.409Z,61.13
2022-11-25T23:27:48.607Z,61.47
2022-11-25T23:30:18.373Z,60.96
2022-11-25T23:32:45.946Z,60.82
2022-11-25T23:35:15.916Z,60.36
2022-11-25T23:37:42.349Z,60.48
2022-11-25T23:40:19.085Z,59.92
2022-11-25T23:42:45.588Z,60.05
2022-11-25T23:45:15.094Z,59.89
2022-11-25T23:47:43.581Z,59.84
2022-11-25T23:50:18.287Z,59.34
2022-11-25T23:52:44.836Z,59.58
2022-11-25T23:55:18.221Z,59.73
2022-11-25T23:57:47.571Z,59.82
